Latest Weather Observations for Yamba

IDN60801

Issued at 2:32 pm EST Saturday 22 July 2017 (issued every 30 minutes, with the page automatically refreshed every 10 minutes)

About weather observations | Map of weather stations | Latest weather observations for NSW | Other Formats
Station Details ID: 058012 Name: YAMBA PILOT STATION Lat: -29.43 Lon: 153.36 Height: 27.4 m
Data from the previous 72 hours. | See also: Recent months at Yamba
Date/Time
EST
Temp
°C
App
Temp
°C
Dew
Point
°C
Rel
Hum
%
Delta-T
°C
Wind Press
QNH
hPa
Press
MSL
hPa
Rain since
9am
mm
Dir  Spd
km/h
Gust
km/h
Spd
kts
Gust
kts
22/02:30pm 18.1 16.2 9.2 56 4.6 ESE 9 13 5 7 1020.6 1020.6 0.0
22/02:00pm 18.5 16.0 9.8 57 4.6 SE 13 17 7 9 1020.9 1020.9 0.0
22/01:30pm 18.4 15.3 8.9 54 4.9 SE 15 17 8 9 1021.4 1021.4 0.0
22/01:00pm 18.2 15.4 7.0 48 5.6 SSW 11 15 6 8 1021.7 1021.7 0.0
22/12:30pm 18.0 15.2 7.1 49 5.5 SSW 11 17 6 9 1022.1 1022.1 0.0
22/12:00pm 17.8 14.4 6.0 46 5.8 SSW 13 20 7 11 1022.6 1022.6 0.0
22/11:30am 17.4 14.7 5.7 46 5.7 SW 9 11 5 6 1023.2 1023.2 0.0
22/11:00am 16.3 13.1 5.0 47 5.3 WSW 11 17 6 9 1023.8 1023.8 0.0
22/10:30am 14.8 11.1 4.2 49 4.9 WSW 13 20 7 11 1024.1 1024.1 0.0
22/10:00am 14.2 11.3 6.3 59 3.8 WSW 11 17 6 9 1024.3 1024.3 0.0
22/09:30am 12.4 8.4 5.1 61 3.4 WSW 15 26 8 14 1024.5 1024.5 0.0
22/09:00am 11.2 7.5 4.7 64 2.9 WSW 13 24 7 13 1024.4 1024.4 0.0
22/08:30am 10.2 6.5 4.6 68 2.5 WSW 13 24 7 13 1024.4 1024.4 0.0
22/08:00am 9.2 5.9 4.6 73 2.0 WSW 11 20 6 11 1024.1 1024.1 0.0
22/07:30am 8.1 4.8 4.7 79 1.5 SW 11 20 6 11 1023.7 1023.7 0.0
22/07:00am 7.2 4.2 4.3 82 1.2 WSW 9 17 5 9 1023.5 1023.5 0.0
22/06:30am 7.1 3.8 4.4 83 1.2 WSW 11 17 6 9 1023.1 1023.1 0.0
22/06:00am 7.2 3.9 4.5 83 1.2 WSW 11 20 6 11 1022.6 1022.6 0.0
22/05:30am 7.3 4.0 4.8 84 1.1 WSW 11 17 6 9 1022.2 1022.2 0.0
22/05:00am 7.5 4.7 5.0 84 1.1 W 9 15 5 8 1021.9 1021.9 0.0
22/04:30am 7.9 4.7 5.0 82 1.3 WSW 11 17 6 9 1021.8 1021.8 0.0
22/04:00am 7.9 4.7 5.0 82 1.3 W 11 17 6 9 1021.8 1021.8 0.0
22/03:30am 8.2 4.9 4.6 78 1.6 WSW 11 20 6 11 1021.7 1021.7 0.0
22/03:00am 8.6 5.3 4.4 75 1.8 WSW 11 20 6 11 1021.9 1021.9 0.0
22/02:30am 8.8 5.6 5.2 78 1.6 SW 11 20 6 11 1021.7 1021.7 0.0
22/02:00am 8.8 6.1 5.4 79 1.5 SW 9 17 5 9 1021.6 1021.6 0.0
22/01:30am 9.1 6.3 5.1 76 1.8 SW 9 17 5 9 1021.7 1021.7 0.0
22/01:00am 8.9 6.1 5.1 77 1.7 WSW 9 17 5 9 1021.8 1021.8 0.0
22/12:30am 9.4 6.6 5.2 75 1.9 WSW 9 15 5 8 1021.8 1021.8 0.0
22/12:00am 10.2 7.8 5.2 71 2.3 SW 7 11 4 6 1021.8 1021.8 0.0
 
Date/Time
EST
Temp
°C
App
Temp
°C
Dew
Point
°C
Rel
Hum
%
Delta-T
°C
Wind Press
QNH
hPa
Press
MSL
hPa
Rain since
9am
mm
Dir  Spd
km/h
Gust
km/h
Spd
kts
Gust
kts
21/11:30pm 10.9 8.3 5.9 71 2.3 SW 9 13 5 7 1021.8 1021.8 0.0
21/11:00pm 12.1 9.7 6.8 70 2.5 SW 9 15 5 8 1022.0 1022.0 0.0
21/10:30pm 12.0 9.6 6.9 71 2.4 SW 9 15 5 8 1022.1 1022.1 0.0
21/10:00pm 12.9 10.3 7.6 70 2.6 SSW 11 17 6 9 1022.0 1022.0 0.0
21/09:30pm 11.8 9.7 6.7 71 2.4 SW 7 13 4 7 1021.8 1021.8 0.0
21/09:00pm 11.6 9.5 6.5 71 2.4 SW 7 13 4 7 1021.5 1021.5 0.0
21/08:30pm 11.9 9.8 6.8 71 2.4 SW 7 13 4 7 1021.3 1021.3 0.0
21/08:00pm 12.0 10.0 6.9 71 2.4 SW 7 9 4 5 1021.2 1021.2 0.0
21/07:30pm 12.2 9.7 6.7 69 2.6 SW 9 11 5 6 1021.1 1021.1 0.0
21/07:00pm 13.0 11.1 6.6 65 3.1 SW 6 9 3 5 1020.8 1020.8 0.0
21/06:30pm 13.5 11.0 6.6 63 3.3 SSW 9 17 5 9 1020.4 1020.4 0.0
21/06:00pm 13.7 10.7 5.8 59 3.7 SSW 11 17 6 9 1020.2 1020.2 0.0
21/05:30pm 14.1 11.6 6.5 60 3.7 SSW 9 13 5 7 1019.8 1019.8 0.0
21/05:00pm 14.9 11.8 5.7 54 4.4 S 11 15 6 8 1019.4 1019.4 0.0
21/04:30pm 15.8 13.0 3.3 43 5.7 S 7 11 4 6 1019.2 1019.2 0.0
21/04:00pm 16.3 12.7 2.7 40 6.1 SSE 11 17 6 9 1018.9 1018.9 0.0
21/03:30pm 16.4 13.0 3.8 43 5.8 SSE 11 15 6 8 1018.8 1018.8 0.0
21/03:00pm 16.5 12.7 1.8 37 6.5 SE 11 17 6 9 1018.6 1018.6 0.0
21/02:30pm 16.5 12.2 3.2 41 6.1 SE 15 20 8 11 1018.4 1018.4 0.0
21/02:00pm 16.6 12.8 3.7 42 6.0 ESE 13 20 7 11 1018.4 1018.4 0.0
21/01:30pm 16.2 11.6 1.5 37 6.5 SE 15 20 8 11 1018.4 1018.4 0.0
21/01:00pm 16.3 12.5 2.0 38 6.4 SE 11 15 6 8 1018.4 1018.4 0.0
21/12:30pm 16.0 12.5 1.0 36 6.5 SE 9 15 5 8 1018.7 1018.7 0.0
21/12:00pm 15.7 11.8 1.1 37 6.3 SSW 11 19 6 10 1019.0 1019.0 0.0
21/11:30am 15.6 12.9 3.7 45 5.5 SW 7 15 4 8 1019.4 1019.4 0.0
21/11:00am 14.6 10.5 2.2 43 5.5 SSW 13 20 7 11 1019.6 1019.6 0.0
21/10:30am 14.1 10.2 1.4 42 5.5 SW 11 20 6 11 1019.9 1019.9 0.0
21/10:00am 13.7 9.5 1.4 43 5.3 SW 13 20 7 11 1020.2 1020.2 0.0
21/09:30am 12.7 8.5 1.7 47 4.7 SW 13 24 7 13 1019.8 1019.8 0.0
21/09:00am 11.8 7.6 1.7 50 4.3 WSW 13 22 7 12 1019.5 1019.5 0.0
21/08:30am 11.1 7.7 1.9 53 3.9 WSW 9 17 5 9 1018.9 1018.9 0.0
21/08:00am 10.1 6.7 1.7 56 3.5 SW 9 13 5 7 1018.6 1018.6 0.0
21/07:30am 9.3 5.0 1.0 56 3.4 SW 13 20 7 11 1018.3 1018.3 0.0
21/07:00am 8.3 5.1 0.8 59 3.0 SW 7 13 4 7 1018.0 1018.0 0.0
21/06:30am 7.9 4.8 1.5 64 2.6 WSW 7 11 4 6 1017.6 1017.5 0.0
21/06:00am 8.2 4.7 1.4 62 2.8 WSW 9 13 5 7 1017.2 1017.1 0.0
21/05:30am 8.6 5.2 1.7 62 2.8 WSW 9 13 5 7 1016.7 1016.6 0.0
21/05:00am 9.2 5.8 1.6 59 3.1 WSW 9 13 5 7 1016.4 1016.3 0.0
21/04:30am 9.8 6.4 1.7 57 3.4 WSW 9 19 5 10 1016.2 1016.1 0.0
21/04:00am 10.2 6.8 1.8 56 3.5 SW 9 20 5 11 1016.1 1016.0 0.0
21/03:30am 10.4 6.6 2.0 56 3.6 WSW 11 19 6 10 1016.0 1015.9 0.0
21/03:00am 10.3 6.7 2.9 60 3.2 WSW 11 15 6 8 1016.0 1015.9 0.0
21/02:30am 10.8 7.1 2.6 57 3.5 W 11 17 6 9 1015.8 1015.7 0.0
21/02:00am 11.1 7.0 2.2 54 3.8 WSW 13 19 7 10 1015.5 1015.4 0.0
21/01:30am 11.3 7.6 2.3 54 3.9 W 11 15 6 8 1015.3 1015.2 0.0
21/01:00am 12.0 8.2 1.9 50 4.3 WSW 11 17 6 9 1015.5 1015.4 0.0
21/12:30am 12.3 8.5 1.6 48 4.6 WSW 11 17 6 9 1015.5 1015.4 0.0
21/12:00am 12.7 8.9 1.7 47 4.7 WSW 11 17 6 9 1015.4 1015.3 0.0
 
Date/Time
EST
Temp
°C
App
Temp
°C
Dew
Point
°C
Rel
Hum
%
Delta-T
°C
Wind Press
QNH
hPa
Press
MSL
hPa
Rain since
9am
mm
Dir  Spd
km/h
Gust
km/h
Spd
kts
Gust
kts
20/11:30pm 13.1 8.9 1.5 45 5.0 W 13 20 7 11 1015.3 1015.2 0.0
20/11:00pm 12.8 8.4 2.6 50 4.5 W 15 20 8 11 1015.2 1015.1 0.0
20/10:30pm 13.2 8.8 2.7 49 4.6 W 15 20 8 11 1015.2 1015.1 0.0
20/10:00pm 14.0 10.0 0.6 40 5.7 W 11 15 6 8 1015.1 1015.0 0.0
20/09:30pm 14.7 10.8 0.9 39 5.9 W 11 19 6 10 1014.9 1014.8 0.0
20/09:00pm 14.2 10.0 1.5 42 5.5 WSW 13 22 7 12 1014.5 1014.4 0.0
20/08:30pm 13.9 10.6 2.5 46 5.0 WSW 9 19 5 10 1014.4 1014.3 0.0
20/08:00pm 14.7 11.3 1.9 42 5.6 SW 9 15 5 8 1014.3 1014.2 0.0
20/07:30pm 15.4 11.6 1.9 40 6.0 WSW 11 17 6 9 1013.8 1013.7 0.0
20/07:00pm 16.0 11.9 2.4 40 6.1 WSW 13 26 7 14 1013.4 1013.3 0.0
20/06:30pm 16.5 12.3 3.9 43 5.9 WSW 15 24 8 13 1013.0 1012.9 0.0
20/06:00pm 17.3 13.9 5.9 47 5.6 W 13 20 7 11 1012.8 1012.7 0.0
20/05:30pm 17.2 13.0 7.5 53 4.9 WNW 19 26 10 14 1012.5 1012.4 0.0
20/05:00pm 17.4 15.5 9.1 58 4.3 NW 9 15 5 8 1012.5 1012.4 0.0
20/04:30pm 18.2 15.4 8.5 53 5.0 NNW 13 15 7 8 1012.1 1012.1 0.0
20/04:00pm 19.8 16.7 7.2 44 6.4 NNW 13 19 7 10 1011.9 1011.9 0.0
20/03:30pm 20.7 17.3 7.7 43 6.7 NW 15 20 8 11 1011.8 1011.8 0.0
20/03:00pm 20.9 17.7 6.8 40 7.2 NW 13 22 7 12 1011.9 1011.9 0.0
20/02:30pm 20.8 16.3 4.4 34 8.0 NW 17 24 9 13 1011.9 1011.9 0.0
20/02:00pm 21.2 18.0 6.7 39 7.4 WNW 13 22 7 12 1012.1 1012.1 0.0
20/01:30pm 20.2 16.2 4.7 36 7.5 WNW 15 24 8 13 1012.2 1012.2 0.0
20/01:00pm 19.1 14.7 4.5 38 7.0 W 17 24 9 13 1012.8 1012.7 0.0
20/12:30pm 19.1 15.2 5.2 40 6.8 W 15 22 8 12 1013.2 1013.1 0.0
20/12:00pm 19.4 15.8 6.8 44 6.3 WNW 15 30 8 16 1013.5 1013.4 0.0
20/11:30am 18.6 14.6 6.8 46 5.9 WNW 17 28 9 15 1014.3 1014.2 0.0
20/11:00am 17.8 13.8 5.1 43 6.1 WNW 15 30 8 16 1015.0 1014.9 0.0
20/10:30am 17.1 12.9 5.7 47 5.5 W 17 28 9 15 1015.5 1015.4 0.0
20/10:00am 16.4 12.0 4.8 46 5.5 W 17 24 9 13 1015.8 1015.7 0.0
20/09:30am 15.7 11.3 4.7 48 5.2 W 17 24 9 13 1015.8 1015.7 0.0
20/09:00am 15.0 11.0 5.0 51 4.7 W 15 24 8 13 1015.8 1015.7 0.0
20/08:30am 13.7 10.2 5.6 58 3.8 W 13 20 7 11 1015.8 1015.7 0.0
20/08:00am 12.3 7.9 5.0 61 3.4 W 17 22 9 12 1015.7 1015.6 0.0
20/07:30am 11.4 7.5 5.5 67 2.7 WNW 15 19 8 10 1015.5 1015.4 0.0
20/07:00am 10.8 7.1 4.5 65 2.8 W 13 17 7 9 1015.0 1014.9 0.0
20/06:30am 10.5 7.2 4.4 66 2.7 W 11 17 6 9 1014.7 1014.6 0.0
20/06:00am 10.6 6.9 4.3 65 2.8 WSW 13 19 7 10 1014.5 1014.4 0.0
20/05:30am 10.7 7.0 4.6 66 2.7 WSW 13 20 7 11 1014.3 1014.2 0.0
20/05:00am 11.0 7.3 4.5 64 2.9 W 13 19 7 10 1013.9 1013.8 0.0
20/04:30am 11.0 7.3 4.2 63 3.0 W 13 19 7 10 1013.2 1013.1 0.0
20/04:00am 11.6 7.9 4.6 62 3.2 W 13 20 7 11 1012.7 1012.6 0.0
20/03:30am 11.2 6.7 4.2 62 3.1 W 17 22 9 12 1012.6 1012.5 0.0
20/03:00am 11.8 8.1 4.3 60 3.4 W 13 20 7 11 1012.2 1012.2 0.0
20/02:30am 11.6 7.5 4.3 61 3.3 W 15 20 8 11 1012.2 1012.2 0.0
20/02:00am 11.7 7.6 4.2 60 3.4 W 15 20 8 11 1012.1 1012.1 0.0
20/01:30am 11.4 7.0 4.6 63 3.1 W 17 22 9 12 1012.1 1012.1 0.0
20/01:00am 11.2 6.7 4.2 62 3.1 W 17 22 9 12 1012.0 1012.0 0.0
20/12:30am 11.2 7.1 4.4 63 3.1 WNW 15 20 8 11 1012.1 1012.1 0.0
20/12:00am 11.8 7.7 4.5 61 3.3 W 15 20 8 11 1012.5 1012.4 0.0
 
Date/Time
EST
Temp
°C
App
Temp
°C
Dew
Point
°C
Rel
Hum
%
Delta-T
°C
Wind Press
QNH
hPa
Press
MSL
hPa
Rain since
9am
mm
Dir  Spd
km/h
Gust
km/h
Spd
kts
Gust
kts
19/11:30pm 11.6 7.5 4.1 60 3.4 W 15 19 8 10 1012.5 1012.4 0.0
19/11:00pm 11.7 8.3 4.2 60 3.4 WNW 11 17 6 9 1012.7 1012.6 0.0
19/10:30pm 12.0 8.3 4.5 60 3.4 W 13 20 7 11 1012.7 1012.6 0.0
19/10:00pm 12.2 8.0 3.9 57 3.7 W 15 19 8 10 1012.6 1012.5 0.0
19/09:30pm 12.1 8.7 3.9 57 3.7 W 11 17 6 9 1012.3 1012.3 0.0
19/09:00pm 12.9 9.8 3.6 53 4.2 WSW 9 13 5 7 1012.3 1012.3 0.0
19/08:30pm 13.4 10.0 3.8 52 4.3 WSW 11 20 6 11 1012.2 1012.2 0.0
19/08:00pm 13.8 10.3 3.6 50 4.6 WSW 11 17 6 9 1011.8 1011.8 0.0
19/07:30pm 14.1 9.8 3.0 47 5.0 W 15 26 8 14 1011.2 1011.2 0.0
19/07:00pm 14.5 9.7 2.7 45 5.3 W 17 30 9 16 1010.8 1010.8 0.0
19/06:30pm 14.7 9.6 2.9 45 5.3 W 19 30 10 16 1010.0 1010.0 0.0
19/06:00pm 14.8 9.5 3.0 45 5.3 W 20 35 11 19 1009.3 1009.3 0.0
19/05:30pm 15.2 10.0 2.7 43 5.6 W 19 28 10 15 1009.0 1009.0 0.0
19/05:00pm 15.8 10.4 2.2 40 6.1 W 20 43 11 23 1008.3 1008.3 0.0
19/04:30pm 16.3 11.0 3.0 41 6.1 W 20 44 11 24 1007.9 1007.9 0.0
19/04:00pm 17.2 11.5 2.8 38 6.6 W 22 44 12 24 1007.4 1007.4 0.0
19/03:34pm 17.6 10.7 2.4 36 6.9 W 28 46 15 25 1006.9 1006.9 0.0
19/03:30pm 17.8 11.3 2.9 37 6.9 W 26 41 14 22 1007.1 1007.1 0.0
19/03:00pm 18.2 12.3 1.7 33 7.5 W 22 39 12 21 1007.1 1007.1 0.0

Other Formats:

Comma delimited format used in spreadsheet applications
http://www.bom.gov.au/fwo/IDN60801/IDN60801.94589.axf

JavaScript Object Notation format (JSON) in row-major order
http://www.bom.gov.au/fwo/IDN60801/IDN60801.94589.json